^^
Grace C. Lehan Memorial Weather Station Historical Data
Daily Summary for June 4, 2021 Units:  English    Metric   Both
Daily Weekly Monthly Yearly
  High: Low: Average:
Temperature: 76.6 °F 60.2 °F 68.7 °F
Dew Point: 64.8 °F 57.8 °F 61.7 °F
Humidity: 93% 61% 79%
Wind Speed: 1mph 0mph 0mph
Wind Gust: 4mph - -
Wind- - ENE
Pressure: 30.14 in 30.06 in -
Precipitation: 0.00 in    
 
 
Tabular Data for June 4, 2021
Time Temperature Dew Point Pressure Wind Wind Speed Wind Gust Humidity Rainfall Rate (Hourly) solar
00:00 64.8 °F 58.8 °F 30.06 in Calm     81% 0.00 in 0 W/m2
00:09 64.7 °F 58.7 °F 30.06 in Calm     81% 0.00 in 0 W/m2
00:14 64.7 °F 59 °F 30.06 in Calm     81.9% 0.00 in 0 W/m2
00:19 64.6 °F 59 °F 30.06 in Calm     82% 0.00 in 0 W/m2
00:24 64.5 °F 58.9 °F 30.06 in Calm     82% 0.00 in 0 W/m2
00:29 64.4 °F 58.8 °F 30.06 in Calm     82% 0.00 in 0 W/m2
00:34 64.4 °F 59.1 °F 30.06 in Calm     82.8% 0.00 in 0 W/m2
00:39 64.3 °F 59 °F 30.06 in Calm     83% 0.00 in 0 W/m2
00:44 64.2 °F 58.9 °F 30.06 in Calm     83% 0.00 in 0 W/m2
00:49 64.1 °F 59 °F 30.06 in Calm     83.4% 0.00 in 0 W/m2
00:54 64 °F 59.1 °F 30.06 in Calm     84% 0.00 in 0 W/m2
00:59 64 °F 59.1 °F 30.06 in Calm     84% 0.00 in 0 W/m2
01:04 63.9 °F 59 °F 30.06 in Calm     84% 0.00 in 0 W/m2
01:09 63.8 °F 59 °F 30.06 in Calm     84.3% 0.00 in 0 W/m2
01:14 63.8 °F 59.2 °F 30.06 in Calm     85% 0.00 in 0 W/m2
01:19 63.7 °F 59.1 °F 30.06 in Calm     85% 0.00 in 0 W/m2
01:24 63.7 °F 59.1 °F 30.06 in Calm     85% 0.00 in 0 W/m2
01:29 63.6 °F 59 °F 30.06 in Calm     85% 0.00 in 0 W/m2
01:34 63.5 °F 58.9 °F 30.06 in Calm     85% 0.00 in 0 W/m2
01:39 63.4 °F 58.8 °F 30.06 in Calm     85% 0.00 in 0 W/m2
01:44 63.3 °F 59 °F 30.06 in Calm     85.9% 0.00 in 0 W/m2
01:49 63.2 °F 59 °F 30.06 in Calm     86% 0.00 in 0 W/m2
01:54 63.2 °F 58.9 °F 30.06 in Calm     86% 0.00 in 0 W/m2
01:59 63.1 °F 58.8 °F 30.06 in Calm     86% 0.00 in 0 W/m2
02:04 62.9 °F 59 °F 30.06 in Calm     86.9% 0.00 in 0 W/m2
02:09 62.8 °F 58.9 °F 30.06 in Calm     87% 0.00 in 0 W/m2
02:14 62.7 °F 58.8 °F 30.06 in Calm     87% 0.00 in 0 W/m2
02:19 62.7 °F 58.8 °F 30.06 in Calm     87% 0.00 in 0 W/m2
02:24 62.6 °F 58.7 °F 30.06 in Calm     87% 0.00 in 0 W/m2
02:29 62.6 °F 58.7 °F 30.06 in Calm     87% 0.00 in 0 W/m2
02:34 62.5 °F 58.6 °F 30.06 in Calm     87% 0.00 in 0 W/m2
02:39 62.5 °F 58.8 °F 30.07 in Calm     87.6% 0.00 in 0 W/m2
02:44 62.4 °F 58.8 °F 30.07 in Calm     88% 0.00 in 0 W/m2
02:49 62.3 °F 58.7 °F 30.06 in Calm     88% 0.00 in 0 W/m2
02:54 62.3 °F 58.7 °F 30.06 in Calm     88% 0.00 in 0 W/m2
02:59 62.2 °F 58.6 °F 30.07 in Calm     88% 0.00 in 0 W/m2
03:04 62.1 °F 58.5 °F 30.07 in Calm     88% 0.00 in 0 W/m2
03:09 62 °F 58.5 °F 30.06 in Calm     88% 0.00 in 0 W/m2
03:14 62 °F 58.6 °F 30.07 in Calm     88.6% 0.00 in 0 W/m2
03:19 61.9 °F 58.6 °F 30.07 in Calm     89% 0.00 in 0 W/m2
03:24 61.8 °F 58.5 °F 30.07 in Calm     89% 0.00 in 0 W/m2
03:29 61.8 °F 58.5 °F 30.06 in Calm     89% 0.00 in 0 W/m2
03:34 61.7 °F 58.4 °F 30.06 in Calm     89% 0.00 in 0 W/m2
03:39 61.6 °F 58.4 °F 30.07 in Calm     89% 0.00 in 0 W/m2
03:44 61.6 °F 58.3 °F 30.07 in Calm     89% 0.00 in 0 W/m2
03:49 61.5 °F 58.4 °F 30.06 in Calm     89.6% 0.00 in 0 W/m2
03:54 61.4 °F 58.5 °F 30.06 in Calm     90% 0.00 in 0 W/m2
03:59 61.4 °F 58.5 °F 30.06 in Calm     90% 0.00 in 0 W/m2
04:00 61.4 °F 58.5 °F 30.06 in Calm     90% 0.00 in 0 W/m2
04:09 61.3 °F 58.3 °F 30.06 in Calm     90% 0.00 in 0 W/m2
04:14 61.2 °F 58.3 °F 30.07 in Calm     90% 0.00 in 0 W/m2
04:19 61.2 °F 58.2 °F 30.07 in Calm     90% 0.00 in 0 W/m2
04:24 61.1 °F 58.2 °F 30.07 in Calm     90% 0.00 in 0 W/m2
04:29 61.1 °F 58.4 °F 30.07 in Calm     90.7% 0.00 in 0 W/m2
04:34 61.1 °F 58.5 °F 30.07 in Calm     91% 0.00 in 0 W/m2
04:39 61 °F 58.4 °F 30.07 in Calm     91% 0.00 in 0 W/m2
04:44 61 °F 58.3 °F 30.07 in Calm     91% 0.00 in 0 W/m2
04:49 60.9 °F 58.3 °F 30.07 in Calm     91% 0.00 in 0 W/m2
04:54 60.9 °F 58.3 °F 30.07 in Calm     91% 0.00 in 0 W/m2
04:59 60.9 °F 58.2 °F 30.08 in Calm     91% 0.00 in 0 W/m2
05:04 60.8 °F 58.2 °F 30.08 in Calm     91% 0.00 in 0 W/m2
05:09 60.8 °F 58.1 °F 30.08 in Calm     91% 0.00 in 0 W/m2
05:14 60.7 °F 58.1 °F 30.08 in Calm     91% 0.00 in 0 W/m2
05:19 60.7 °F 58.1 °F 30.08 in Calm     91% 0.00 in 0 W/m2
05:24 60.7 °F 58.1 °F 30.08 in Calm     91% 0.00 in 0 W/m2
05:29 60.6 °F 58 °F 30.08 in Calm     91% 0.00 in 0 W/m2
05:34 60.6 °F 58 °F 30.08 in Calm     91% 0.00 in 0 W/m2
05:39 60.5 °F 57.9 °F 30.08 in Calm     91% 0.00 in 0 W/m2
05:44 60.5 °F 57.8 °F 30.08 in Calm     91% 0.00 in 0 W/m2
05:49 60.4 °F 58.1 °F 30.08 in Calm     92% 0.00 in 0 W/m2
05:54 60.4 °F 58.1 °F 30.09 in Calm     92% 0.00 in 0 W/m2
05:59 60.3 °F 58 °F 30.09 in Calm     92% 0.00 in 0 W/m2
06:04 60.3 °F 58 °F 30.09 in Calm     92% 0.00 in 5 W/m2
06:09 60.2 °F 57.9 °F 30.09 in Calm     92% 0.00 in 7 W/m2
06:14 60.3 °F 58 °F 30.09 in Calm     92% 0.00 in 7 W/m2
06:19 60.3 °F 58 °F 30.09 in Calm     92% 0.00 in 7 W/m2
06:24 60.3 °F 58 °F 30.09 in Calm     92% 0.00 in 12 W/m2
06:29 60.3 °F 58 °F 30.09 in Calm     92.1% 0.00 in 16 W/m2
06:34 60.4 °F 58.4 °F 30.09 in Calm     93% 0.00 in 19 W/m2
06:39 60.4 °F 58.4 °F 30.10 in Calm     93% 0.00 in 23 W/m2
06:44 60.4 °F 58.4 °F 30.10 in Calm     93% 0.00 in 23 W/m2
06:49 60.5 °F 58.5 °F 30.09 in Calm     93% 0.00 in 28 W/m2
06:54 60.6 °F 58.6 °F 30.09 in Calm     93% 0.00 in 33 W/m2
06:59 60.7 °F 58.7 °F 30.10 in Calm     93% 0.00 in 40 W/m2
07:04 60.9 °F 58.8 °F 30.10 in Calm     93% 0.00 in 44 W/m2
07:09 61 °F 59 °F 30.10 in Calm     93% 0.00 in 58 W/m2
07:14 61.1 °F 59.1 °F 30.10 in Calm     93% 0.00 in 69 W/m2
07:19 61.3 °F 59.3 °F 30.09 in Calm     93% 0.00 in 69 W/m2
07:24 61.5 °F 59.5 °F 30.10 in Calm     93% 0.00 in 62 W/m2
07:29 61.7 °F 59.7 °F 30.10 in Calm     93% 0.00 in 91 W/m2
07:34 61.9 °F 59.9 °F 30.10 in Calm     93% 0.00 in 102 W/m2
07:39 62.1 °F 60.1 °F 30.10 in Calm     93% 0.00 in 158 W/m2
07:44 62.5 °F 60.5 °F 30.11 in Calm     93% 0.00 in 197 W/m2
07:49 63 °F 61 °F 30.11 in Calm     93% 0.00 in 241 W/m2
07:54 63.4 °F 60.9 °F 30.11 in Calm     91.5% 0.00 in 302 W/m2
07:59 64 °F 61.3 °F 30.11 in Calm     91.2% 0.00 in 260 W/m2
08:00 64.3 °F 61.6 °F 30.11 in Calm     91% 0.00 in 174 W/m2
08:09 65.5 °F 62.4 °F 30.12 in Calm     89.5% 0.00 in 278 W/m2
08:14 66.2 °F 62.2 °F 30.12 in Calm     87.1% 0.00 in 239 W/m2
08:19 66.7 °F 62.1 °F 30.12 in Calm     85.3% 0.00 in 236 W/m2
08:24 67.3 °F 62.3 °F 30.12 in Calm     84% 0.00 in 236 W/m2
08:29 67.8 °F 62.3 °F 30.12 in Calm     82.7% 0.00 in 236 W/m2
08:34 68.1 °F 62.1 °F 30.13 in Calm   1 mph 81.1% 0.00 in 202 W/m2
08:39 68.3 °F 61.8 °F 30.13 in Calm   1 mph 79.9% 0.00 in 181 W/m2
08:44 68.4 °F 61.6 °F 30.13 in Calm   1 mph 79% 0.00 in 174 W/m2
08:49 68.5 °F 61.7 °F 30.13 in Calm   1 mph 79% 0.00 in 162 W/m2
08:54 68.5 °F 61.6 °F 30.13 in Calm   1 mph 78.5% 0.00 in 169 W/m2
08:59 68.6 °F 62 °F 30.12 in Calm   1 mph 79.4% 0.00 in 172 W/m2
09:04 68.7 °F 61.9 °F 30.12 in Calm   1 mph 79% 0.00 in 197 W/m2
09:09 68.7 °F 61.6 °F 30.12 in Calm     78% 0.00 in 199 W/m2
09:14 68.7 °F 61.3 °F 30.12 in Calm     77.3% 0.00 in 186 W/m2
09:19 68.8 °F 61.9 °F 30.12 in Calm     78.6% 0.00 in 176 W/m2
09:24 68.9 °F 61.9 °F 30.12 in Calm     78.3% 0.00 in 190 W/m2
09:29 69.1 °F 62.4 °F 30.12 in Calm     79.2% 0.00 in 211 W/m2
09:34 69.3 °F 62.4 °F 30.12 in Calm     78.7% 0.00 in 229 W/m2
09:39 69.6 °F 62.7 °F 30.12 in Calm   2 mph 78.8% 0.00 in 234 W/m2
09:44 69.8 °F 62 °F 30.12 in Calm   2 mph 76.3% 0.00 in 265 W/m2
09:49 70 °F 62.7 °F 30.12 in NNW 0.3 mph 3 mph 77.5% 0.00 in 283 W/m2
09:54 70.1 °F 62 °F 30.12 in NNW 0.2 mph 3 mph 75.4% 0.00 in 301 W/m2
09:59 70.3 °F 61.8 °F 30.12 in NNE 0.7 mph 3 mph 74.6% 0.00 in 281 W/m2
10:04 70.5 °F 62.1 °F 30.12 in Calm   3 mph 74.8% 0.00 in 241 W/m2
10:09 70.6 °F 62 °F 30.12 in Calm     74.3% 0.00 in 225 W/m2
10:14 70.7 °F 62.4 °F 30.13 in Calm     75.2% 0.00 in 211 W/m2
10:19 70.8 °F 62.8 °F 30.13 in Calm     75.7% 0.00 in 220 W/m2
10:24 71 °F 62.5 °F 30.13 in NNE 0.3 mph 4 mph 74.5% 0.00 in 220 W/m2
10:29 71 °F 62 °F 30.13 in NNE 0.1 mph 4 mph 73.2% 0.00 in 214 W/m2
10:34 71.1 °F 62.1 °F 30.13 in NNE 0.1 mph 4 mph 73.3% 0.00 in 204 W/m2
10:39 71.2 °F 62.6 °F 30.13 in Calm   3 mph 74.2% 0.00 in 206 W/m2
10:44 71.3 °F 62.7 °F 30.13 in Calm   3 mph 74.2% 0.00 in 214 W/m2
10:49 71.4 °F 62.4 °F 30.13 in NNE 0.1 mph 3 mph 73.4% 0.00 in 214 W/m2
10:54 71.4 °F 62.5 °F 30.13 in NNE 0.2 mph 3 mph 73.5% 0.00 in 223 W/m2
10:59 71.3 °F 62.6 °F 30.13 in Calm   3 mph 74.1% 0.00 in 227 W/m2
11:04 71.4 °F 62.9 °F 30.14 in NNE 0.1 mph 3 mph 74.8% 0.00 in 229 W/m2
11:09 71.5 °F 62.3 °F 30.14 in Calm   2 mph 72.9% 0.00 in 230 W/m2
11:14 71.4 °F 61.9 °F 30.14 in Calm   2 mph 72% 0.00 in 223 W/m2
11:19 71.4 °F 62.2 °F 30.14 in Calm   2 mph 72.9% 0.00 in 248 W/m2
11:24 71.4 °F 62.3 °F 30.14 in Calm   2 mph 72.9% 0.00 in 274 W/m2
11:29 71.6 °F 62.5 °F 30.14 in Calm   2 mph 73% 0.00 in 285 W/m2
11:34 71.8 °F 62.7 °F 30.14 in Calm   2 mph 73% 0.00 in 287 W/m2
11:39 72 °F 62.7 °F 30.14 in Calm     72.7% 0.00 in 274 W/m2
11:44 72.1 °F 62.6 °F 30.14 in Calm     71.9% 0.00 in 283 W/m2
11:49 72.4 °F 63.1 °F 30.13 in Calm     72.5% 0.00 in 278 W/m2
11:54 72.6 °F 62.7 °F 30.13 in NNE 0.1 mph 2 mph 71.2% 0.00 in 272 W/m2
11:59 72.7 °F 63.1 °F 30.13 in Calm   2 mph 71.9% 0.00 in 267 W/m2
12:09 73 °F 63.3 °F 30.13 in Calm     71.5% 0.00 in 255 W/m2
12:14 73.1 °F 63.1 °F 30.13 in Calm     70.9% 0.00 in 246 W/m2
12:19 73.2 °F 63.3 °F 30.13 in Calm   1 mph 71.2% 0.00 in 244 W/m2
12:24 73.2 °F 62.8 °F 30.13 in NNE 0.1 mph 2 mph 69.9% 0.00 in 258 W/m2
12:29 73.3 °F 63.6 °F 30.13 in Calm   2 mph 71.7% 0.00 in 269 W/m2
12:34 73.5 °F 63.8 °F 30.13 in Calm   2 mph 71.7% 0.00 in 278 W/m2
12:39 73.7 °F 63.5 °F 30.13 in NNE 0.4 mph 3 mph 70.5% 0.00 in 278 W/m2
12:44 73.8 °F 63.1 °F 30.12 in NNE 0.3 mph 3 mph 69.1% 0.00 in 269 W/m2
12:49 74 °F 63.3 °F 30.12 in NNE 0.2 mph 3 mph 69.3% 0.00 in 271 W/m2
12:54 74.2 °F 63.2 °F 30.12 in NNE 0.1 mph 3 mph 68.7% 0.00 in 287 W/m2
12:59 74.3 °F 63.4 °F 30.12 in Calm   3 mph 68.8% 0.00 in 299 W/m2
13:04 74.4 °F 64 °F 30.12 in Calm   3 mph 70.2% 0.00 in 380 W/m2
13:09 74.7 °F 64.2 °F 30.12 in NNE 1 mph 3 mph 69.9% 0.00 in 390 W/m2
13:14 74.9 °F 63.6 °F 30.12 in Calm   3 mph 68.1% 0.00 in 422 W/m2
13:19 75.1 °F 63.9 °F 30.12 in Calm   3 mph 68.3% 0.00 in 445 W/m2
13:24 75.4 °F 64.3 °F 30.12 in Calm   3 mph 68.3% 0.00 in 439 W/m2
13:29 75.8 °F 64 °F 30.12 in NNE 0.1 mph 3 mph 66.9% 0.00 in 431 W/m2
13:34 75.8 °F 64 °F 30.12 in Calm   3 mph 66.7% 0.00 in 396 W/m2
13:39 76 °F 64.1 °F 30.13 in Calm     66.7% 0.00 in 374 W/m2
13:44 76.2 °F 64.6 °F 30.13 in Calm     67.4% 0.00 in 399 W/m2
13:49 76.4 °F 64.1 °F 30.13 in NNE 0.2 mph 2 mph 65.9% 0.00 in 438 W/m2
13:54 76.5 °F 62.4 °F 30.13 in NE 0.4 mph 4 mph 61.8% 0.00 in 446 W/m2
13:59 76.6 °F 62.2 °F 30.13 in NE 0.1 mph 4 mph 61% 0.00 in 422 W/m2
14:04 76.6 °F 62.4 °F 30.13 in NE 0.1 mph 4 mph 61.5% 0.00 in 345 W/m2
14:09 76.5 °F 62.7 °F 30.13 in NE 0.1 mph 2 mph 62.4% 0.00 in 336 W/m2
14:14 76.5 °F 63 °F 30.12 in NE 0.1 mph 2 mph 63% 0.00 in 330 W/m2
14:19 76.5 °F 62.5 °F 30.12 in NE 0.1 mph 2 mph 62% 0.00 in 301 W/m2
14:24 76.5 °F 63.6 °F 30.12 in Calm   2 mph 64.3% 0.00 in 272 W/m2
14:29 76.6 °F 63.8 °F 30.13 in Calm   2 mph 64.7% 0.00 in 246 W/m2
14:34 76.5 °F 63.6 °F 30.13 in Calm   2 mph 64.4% 0.00 in 232 W/m2
14:39 76.5 °F 64.1 °F 30.13 in Calm     65.7% 0.00 in 221 W/m2
14:44 76.4 °F 63.8 °F 30.13 in Calm     65.2% 0.00 in 209 W/m2
14:49 76.3 °F 64.2 °F 30.13 in Calm     66.2% 0.00 in 218 W/m2
14:54 76.1 °F 64.2 °F 30.13 in Calm     66.6% 0.00 in 216 W/m2
14:59 75.9 °F 64.1 °F 30.13 in Calm     66.9% 0.00 in 214 W/m2
15:04 75.8 °F 64.2 °F 30.13 in Calm     67.4% 0.00 in 221 W/m2
15:09 75.7 °F 64.3 °F 30.13 in Calm   2 mph 67.8% 0.00 in 221 W/m2
15:14 75.6 °F 64.4 °F 30.13 in Calm   2 mph 68.3% 0.00 in 197 W/m2
15:19 75.5 °F 64.4 °F 30.12 in Calm   2 mph 68.3% 0.00 in 171 W/m2
15:24 75.5 °F 64.6 °F 30.12 in Calm   2 mph 69% 0.00 in 162 W/m2
15:29 75.4 °F 64.6 °F 30.12 in NE 0.1 mph 2 mph 69% 0.00 in 162 W/m2
15:34 75.3 °F 64.3 °F 30.12 in Calm   2 mph 68.6% 0.00 in 144 W/m2
15:39 75.2 °F 63.9 °F 30.12 in NE 0.1 mph 2 mph 68% 0.00 in 123 W/m2
15:44 75.1 °F 64.2 °F 30.12 in Calm   2 mph 68.9% 0.00 in 130 W/m2
15:49 75 °F 64 °F 30.11 in Calm   2 mph 68.6% 0.00 in 135 W/m2
15:54 74.9 °F 63.7 °F 30.11 in Calm   2 mph 68% 0.00 in 132 W/m2
15:59 74.9 °F 64 °F 30.11 in Calm   2 mph 68.8% 0.00 in 134 W/m2
16:04 74.9 °F 63.8 °F 30.11 in Calm   2 mph 68.5% 0.00 in 149 W/m2
16:09 74.9 °F 63.4 °F 30.11 in Calm     67.4% 0.00 in 149 W/m2
16:14 75 °F 63.9 °F 30.11 in Calm     68.5% 0.00 in 144 W/m2
16:19 75.1 °F 64.4 °F 30.11 in Calm     69.3% 0.00 in 155 W/m2
16:24 75.1 °F 63.8 °F 30.11 in Calm   1 mph 68% 0.00 in 169 W/m2
16:29 75.1 °F 63.8 °F 30.11 in Calm   1 mph 67.9% 0.00 in 174 W/m2
16:34 75 °F 63.3 °F 30.11 in Calm   1 mph 67% 0.00 in 181 W/m2
16:39 75 °F 63.7 °F 30.11 in NE 0.1 mph 2 mph 68% 0.00 in 181 W/m2
16:44 75.1 °F 63.7 °F 30.11 in Calm   2 mph 67.6% 0.00 in 172 W/m2
16:49 75 °F 63.3 °F 30.10 in NE 0.2 mph 3 mph 67.1% 0.00 in 141 W/m2
16:54 74.8 °F 63.1 °F 30.10 in Calm   3 mph 67% 0.00 in 128 W/m2
16:59 74.6 °F 62.9 °F 30.10 in NE 0.1 mph 3 mph 67% 0.00 in 113 W/m2
17:04 74.4 °F 63.1 °F 30.10 in Calm   3 mph 67.8% 0.00 in 105 W/m2
17:09 74.3 °F 63.3 °F 30.10 in Calm   1 mph 68.5% 0.00 in 107 W/m2
17:14 74.2 °F 63.6 °F 30.10 in NE 0.1 mph 3 mph 69.4% 0.00 in 118 W/m2
17:19 74.1 °F 63.3 °F 30.10 in Calm   3 mph 69.1% 0.00 in 125 W/m2
17:24 74 °F 62.9 °F 30.10 in ENE 0.4 mph 4 mph 68.3% 0.00 in 125 W/m2
17:29 73.9 °F 62.9 °F 30.10 in Calm   4 mph 68.6% 0.00 in 107 W/m2
17:34 73.8 °F 63 °F 30.11 in Calm   4 mph 69% 0.00 in 98 W/m2
17:39 73.6 °F 62.8 °F 30.11 in East 0.4 mph 4 mph 69% 0.00 in 90 W/m2
17:44 73.4 °F 62.9 °F 30.10 in East 0.3 mph 4 mph 69.6% 0.00 in 90 W/m2
17:49 73.2 °F 62.9 °F 30.10 in East 0.1 mph 4 mph 70.1% 0.00 in 90 W/m2
17:54 73.1 °F 62.3 °F 30.10 in Calm   4 mph 69% 0.00 in 91 W/m2
17:59 73 °F 62.2 °F 30.10 in East 0.1 mph 4 mph 69% 0.00 in 91 W/m2
18:04 73 °F 62.3 °F 30.10 in East 0.4 mph 4 mph 69.2% 0.00 in 86 W/m2
18:09 72.9 °F 62.6 °F 30.09 in East 0.1 mph 3 mph 70% 0.00 in 81 W/m2
18:14 72.9 °F 62.1 °F 30.09 in Calm   3 mph 69% 0.00 in 86 W/m2
18:19 72.9 °F 62.1 °F 30.09 in Calm   3 mph 69% 0.00 in 86 W/m2
18:24 72.8 °F 62.1 °F 30.09 in Calm   3 mph 69% 0.00 in 70 W/m2
18:29 72.8 °F 62.1 °F 30.09 in Calm   3 mph 69% 0.00 in 62 W/m2
18:34 72.8 °F 62.1 °F 30.09 in Calm   3 mph 69.2% 0.00 in 62 W/m2
18:39 72.7 °F 62.3 °F 30.09 in Calm     69.7% 0.00 in 58 W/m2
18:44 72.6 °F 62.2 °F 30.09 in Calm     69.9% 0.00 in 51 W/m2
18:49 72.5 °F 62.3 °F 30.09 in Calm     70.3% 0.00 in 49 W/m2
18:54 72.4 °F 62.5 °F 30.09 in Calm     71% 0.00 in 44 W/m2
18:59 72.4 °F 62.6 °F 30.09 in East 0.1 mph 2 mph 71.2% 0.00 in 40 W/m2
19:04 72.3 °F 62.8 °F 30.09 in Calm   2 mph 72% 0.00 in 35 W/m2
19:09 72.2 °F 62.6 °F 30.09 in Calm   1 mph 71.7% 0.00 in 26 W/m2
19:14 72.2 °F 62.7 °F 30.09 in Calm   1 mph 72% 0.00 in 25 W/m2
19:19 72.1 °F 62.6 °F 30.09 in Calm   1 mph 72% 0.00 in 25 W/m2
19:24 72.1 °F 62.9 °F 30.09 in Calm   1 mph 72.8% 0.00 in 21 W/m2
19:29 72 °F 62.9 °F 30.09 in Calm   1 mph 73% 0.00 in 18 W/m2
19:34 71.9 °F 63.1 °F 30.09 in Calm   1 mph 73.9% 0.00 in 12 W/m2
19:39 71.8 °F 63.3 °F 30.10 in Calm     74.6% 0.00 in 9 W/m2
19:44 71.7 °F 63.3 °F 30.10 in Calm     75% 0.00 in 7 W/m2
19:49 71.6 °F 63.2 °F 30.10 in Calm     75% 0.00 in 5 W/m2
19:54 71.5 °F 63.2 °F 30.10 in Calm     75% 0.00 in 0 W/m2
19:59 71.4 °F 63.3 °F 30.10 in Calm     75.6% 0.00 in 0 W/m2
20:00 71.3 °F 63 °F 30.10 in Calm     75% 0.00 in 0 W/m2
20:09 71.2 °F 62.9 °F 30.10 in Calm     75% 0.00 in 0 W/m2
20:14 71.1 °F 63.1 °F 30.11 in Calm     75.8% 0.00 in 0 W/m2
20:19 71.1 °F 63.2 °F 30.11 in Calm     76% 0.00 in 0 W/m2
20:24 71 °F 63.1 °F 30.11 in Calm     76% 0.00 in 0 W/m2
20:29 71 °F 63 °F 30.11 in Calm     76% 0.00 in 0 W/m2
20:34 70.9 °F 63.3 °F 30.11 in Calm     76.8% 0.00 in 0 W/m2
20:39 70.9 °F 63.3 °F 30.11 in Calm     77% 0.00 in 0 W/m2
20:44 70.8 °F 63.2 °F 30.11 in Calm     77% 0.00 in 0 W/m2
20:49 70.8 °F 63.2 °F 30.11 in Calm     77% 0.00 in 0 W/m2
20:54 70.7 °F 63.1 °F 30.11 in Calm     77% 0.00 in 0 W/m2
20:59 70.6 °F 63.3 °F 30.11 in Calm     77.6% 0.00 in 0 W/m2
21:04 70.6 °F 63.4 °F 30.11 in Calm     78% 0.00 in 0 W/m2
21:09 70.5 °F 63.3 °F 30.11 in Calm     78% 0.00 in 0 W/m2
21:14 70.5 °F 63.5 °F 30.11 in Calm     78.5% 0.00 in 0 W/m2
21:19 70.4 °F 63.6 °F 30.11 in Calm     79% 0.00 in 0 W/m2
21:24 70.4 °F 63.6 °F 30.11 in Calm     79% 0.00 in 0 W/m2
21:29 70.3 °F 63.5 °F 30.11 in Calm     79% 0.00 in 0 W/m2
21:34 70.3 °F 63.8 °F 30.11 in Calm     79.8% 0.00 in 0 W/m2
21:39 70.2 °F 63.9 °F 30.11 in Calm     80.5% 0.00 in 0 W/m2
21:44 70.1 °F 64.1 °F 30.12 in Calm     81.5% 0.00 in 0 W/m2
21:49 69.9 °F 64.2 °F 30.12 in Calm     82.2% 0.00 in 0 W/m2
21:54 69.7 °F 64.3 °F 30.12 in Calm     83% 0.00 in 0 W/m2
21:59 69.5 °F 64.3 °F 30.12 in Calm     83.5% 0.00 in 0 W/m2
22:04 69.3 °F 64.3 °F 30.12 in Calm     84% 0.00 in 0 W/m2
22:09 69.1 °F 64.4 °F 30.12 in Calm     84.8% 0.00 in 0 W/m2
22:14 69 °F 64.3 °F 30.12 in Calm     85% 0.00 in 0 W/m2
22:19 68.9 °F 64.4 °F 30.12 in Calm     85.6% 0.00 in 0 W/m2
22:24 68.8 °F 64.4 °F 30.12 in Calm     86% 0.00 in 0 W/m2
22:29 68.8 °F 64.7 °F 30.12 in Calm     86.9% 0.00 in 0 W/m2
22:34 68.7 °F 64.7 °F 30.11 in Calm     87% 0.00 in 0 W/m2
22:39 68.6 °F 64.6 °F 30.11 in Calm     87% 0.00 in 0 W/m2
22:44 68.6 °F 64.6 °F 30.11 in Calm     87% 0.00 in 0 W/m2
22:49 68.5 °F 64.6 °F 30.11 in Calm     87.5% 0.00 in 0 W/m2
22:54 68.4 °F 64.8 °F 30.11 in Calm     88% 0.00 in 0 W/m2
22:59 68.4 °F 64.7 °F 30.11 in Calm     88% 0.00 in 0 W/m2
23:04 68.3 °F 64.6 °F 30.10 in Calm     88% 0.00 in 0 W/m2
23:09 68.2 °F 64.5 °F 30.10 in Calm     88% 0.00 in 0 W/m2
23:14 68.2 °F 64.5 °F 30.10 in Calm     88% 0.00 in 0 W/m2
23:19 68.2 °F 64.5 °F 30.10 in Calm     88% 0.00 in 0 W/m2
23:24 68.2 °F 64.6 °F 30.10 in Calm     88.5% 0.00 in 0 W/m2
23:29 68.1 °F 64.7 °F 30.10 in Calm     89% 0.00 in 0 W/m2
23:34 68.1 °F 64.7 °F 30.10 in Calm     89% 0.00 in 0 W/m2
23:39 68.1 °F 64.7 °F 30.10 in Calm     89% 0.00 in 0 W/m2
23:44 68 °F 64.6 °F 30.10 in Calm     89% 0.00 in 0 W/m2
23:49 67.9 °F 64.3 °F 30.10 in East 0.7 mph 4 mph 88% 0.00 in 0 W/m2
23:54 67.8 °F 63.9 °F 30.10 in East 0.5 mph 4 mph 87.3% 0.00 in 0 W/m2
23:59 67.7 °F 63.7 °F 30.09 in East 0.2 mph 4 mph 87% 0.00 in 0 W/m2
Hartford County Weather
Compliments of Weather Underground - 4 mb